Time;durP1;ratioP1;P1;durP2;ratioP2;P2;SDS_P1;SDS_P2;PMS_P1;PMS_P2;Temp;Humidity;BMP_temperature;BMP_pressure;BME280_temperature;BME280_humidity;BME280_pressure;Samples;Min_cycle;Max_cycle;Signal;HPM_P1;HPM_P2
2023/09/20 00:00:35;;;;;;;0.30;0.20;;;16.20;99.90;;;;;;5123365;27;20054;-73
2023/09/20 00:03:01;;;;;;;1.63;0.40;;;16.20;99.90;;;;;;5131161;27;20053;-73
2023/09/20 00:05:27;;;;;;;0.13;0.13;;;16.00;1.00;;;;;;5123954;27;20472;-73
2023/09/20 00:07:56;;;;;;;8.68;2.50;;;16.10;1.00;;;;;;5123803;27;20040;-73
2023/09/20 00:10:22;;;;;;;0.00;0.00;;;16.00;1.00;;;;;;5127019;27;20035;-74
2023/09/20 00:12:48;;;;;;;0.17;0.17;;;15.90;86.00;;;;;;5125951;27;20031;-74
2023/09/20 00:15:14;;;;;;;0.45;0.30;;;15.90;99.90;;;;;;5125481;27;20421;-73
2023/09/20 00:17:40;;;;;;;0.50;0.28;;;16.00;99.90;;;;;;5123484;27;20039;-73
2023/09/20 00:20:13;;;;;;;0.88;0.43;;;16.00;99.90;;;;;;5123622;27;20473;-74
2023/09/20 00:22:44;;;;;;;0.10;0.10;;;16.10;60.30;;;;;;5121812;27;20096;-74
2023/09/20 00:25:14;;;;;;;0.45;0.40;;;16.10;28.60;;;;;;5126615;27;20484;-74
2023/09/20 00:27:41;;;;;;;1.02;0.80;;;16.10;16.70;;;;;;5114627;27;20485;-74
2023/09/20 00:30:10;;;;;;;0.08;0.08;;;16.20;1.00;;;;;;5123103;27;20047;-74
2023/09/20 00:32:42;;;;;;;0.55;0.55;;;16.30;1.00;;;;;;5124705;27;20071;-73
2023/09/20 00:35:12;;;;;;;0.17;0.10;;;16.20;1.00;;;;;;5126663;27;20040;-73
2023/09/20 00:37:42;;;;;;;0.32;0.22;;;16.30;1.00;;;;;;5126392;27;20051;-74
2023/09/20 00:40:21;;;;;;;0.45;0.45;;;16.30;99.90;;;;;;5126234;27;20043;-74
2023/09/20 00:42:51;;;;;;;0.68;0.68;;;16.30;99.90;;;;;;5124145;27;20451;-74
2023/09/20 00:45:20;;;;;;;0.55;0.55;;;16.40;99.90;;;;;;5126321;27;20448;-73
2023/09/20 00:47:55;;;;;;;0.50;0.50;;;16.40;99.90;;;;;;5124782;27;20043;-73
2023/09/20 00:50:21;;;;;;;0.20;0.20;;;16.40;99.90;;;;;;5122515;27;20092;-74
2023/09/20 00:52:51;;;;;;;1.25;0.63;;;16.40;99.90;;;;;;5124066;27;20040;-74
2023/09/20 00:55:21;;;;;;;1.67;0.65;;;16.40;99.90;;;;;;5130030;27;20036;-73
2023/09/20 00:57:53;;;;;;;0.20;0.20;;;16.40;99.90;;;;;;5122729;27;20397;-73
2023/09/20 01:00:27;;;;;;;1.92;1.05;;;16.60;99.90;;;;;;5126003;27;20035;-74
2023/09/20 01:02:54;;;;;;;0.57;0.30;;;16.50;1.00;;;;;;5114629;27;20048;-74
2023/09/20 01:05:21;;;;;;;0.30;0.25;;;16.50;1.00;;;;;;5125789;27;20039;-73
2023/09/20 01:07:50;;;;;;;0.40;0.40;;;16.60;99.90;;;;;;5125749;27;20046;-73
2023/09/20 01:10:18;;;;;;;0.70;0.63;;;16.40;1.00;;;;;;5123411;27;20079;-73
2023/09/20 01:12:44;;;;;;;0.30;0.30;;;16.30;81.80;;;;;;5117343;27;20472;-73
2023/09/20 01:15:10;;;;;;;0.90;0.52;;;16.20;99.90;;;;;;5123463;27;20481;-74
2023/09/20 01:17:46;;;;;;;0.85;0.55;;;16.20;99.90;;;;;;5124836;27;20074;-74
2023/09/20 01:20:13;;;;;;;0.65;0.20;;;16.20;99.90;;;;;;5125774;27;20048;-73
2023/09/20 01:22:40;;;;;;;0.50;0.50;;;16.20;99.90;;;;;;5115003;27;20043;-74
2023/09/20 01:25:09;;;;;;;0.52;0.52;;;16.10;99.90;;;;;;5117860;27;20040;-74
2023/09/20 01:27:35;;;;;;;0.22;0.22;;;16.10;99.90;;;;;;5125161;28;20093;-74
2023/09/20 01:30:02;;;;;;;0.20;0.20;;;16.30;99.90;;;;;;5125594;28;20047;-74
2023/09/20 01:32:29;;;;;;;0.32;0.32;;;16.40;28.40;;;;;;5116302;27;20088;-74
2023/09/20 01:34:55;;;;;;;0.00;0.00;;;16.40;1.00;;;;;;5122172;28;20047;-73
2023/09/20 01:37:21;;;;;;;0.70;0.52;;;16.50;1.00;;;;;;5122581;28;20050;-74
2023/09/20 01:39:46;;;;;;;1.35;0.30;;;16.60;99.90;;;;;;5124082;28;20075;-74
2023/09/20 01:42:12;;;;;;;0.43;0.43;;;16.50;99.90;;;;;;5125967;28;20114;-74
2023/09/20 01:44:38;;;;;;;0.13;0.03;;;16.50;1.00;;;;;;5122812;28;20036;-72
2023/09/20 01:47:04;;;;;;;0.00;0.00;;;16.50;99.90;;;;;;5125831;28;20035;-72
2023/09/20 01:49:32;;;;;;;0.85;0.85;;;16.60;99.90;;;;;;5125399;28;20476;-72
2023/09/20 01:51:58;;;;;;;0.60;0.50;;;16.60;99.90;;;;;;5122137;27;20055;-72
2023/09/20 01:54:27;;;;;;;0.65;0.57;;;16.50;99.90;;;;;;5122271;28;20119;-74
2023/09/20 01:56:53;;;;;;;0.13;0.13;;;16.60;99.90;;;;;;5123089;28;20054;-73
2023/09/20 01:59:21;;;;;;;24.45;1.45;;;16.60;99.90;;;;;;5125455;28;20031;-74
2023/09/20 02:01:48;;;;;;;0.40;0.40;;;16.70;1.00;;;;;;5124610;27;20089;-74
2023/09/20 02:04:15;;;;;;;0.10;0.10;;;16.70;27.20;;;;;;5122262;27;20122;-74
2023/09/20 02:06:41;;;;;;;3.05;0.82;;;16.80;1.00;;;;;;5120880;28;20063;-74
2023/09/20 02:09:08;;;;;;;0.25;0.22;;;16.80;1.00;;;;;;5123372;28;20035;-75
2023/09/20 02:11:34;;;;;;;0.73;0.22;;;16.70;1.00;;;;;;5124567;28;20082;-74
2023/09/20 02:14:00;;;;;;;2.50;0.55;;;16.70;1.00;;;;;;5125092;28;20063;-74
2023/09/20 02:16:26;;;;;;;2.38;1.02;;;16.80;99.90;;;;;;5121926;27;20082;-74
2023/09/20 02:18:52;;;;;;;0.20;0.20;;;16.80;99.90;;;;;;5122219;28;20039;-75
2023/09/20 02:21:21;;;;;;;1.10;0.70;;;16.90;99.90;;;;;;5117243;28;20062;-74
2023/09/20 02:23:46;;;;;;;1.17;0.65;;;16.90;99.90;;;;;;5127254;27;20134;-72
2023/09/20 02:26:12;;;;;;;0.52;0.30;;;16.80;99.90;;;;;;5128935;27;20122;-71
2023/09/20 02:28:38;;;;;;;0.08;0.08;;;16.80;99.90;;;;;;5125374;27;20046;-71
2023/09/20 02:31:04;;;;;;;0.32;0.30;;;16.70;99.90;;;;;;5124845;27;20088;-71
2023/09/20 02:33:30;;;;;;;0.17;0.05;;;16.80;99.90;;;;;;5118640;27;20036;-74
2023/09/20 02:35:57;;;;;;;27.70;1.08;;;16.80;99.90;;;;;;5125950;27;20048;-74
2023/09/20 02:38:22;;;;;;;0.22;0.17;;;16.80;99.90;;;;;;5125470;27;20122;-74
2023/09/20 02:40:50;;;;;;;0.20;0.20;;;16.80;99.90;;;;;;5127427;27;20055;-73
2023/09/20 02:43:16;;;;;;;1.23;0.25;;;16.80;99.90;;;;;;5128455;27;20047;-72
2023/09/20 02:45:45;;;;;;;0.28;0.20;;;16.80;99.90;;;;;;5126910;27;20050;-71
2023/09/20 02:48:11;;;;;;;2.25;0.52;;;16.80;99.90;;;;;;5125590;27;20491;-72
2023/09/20 02:50:37;;;;;;;0.08;0.08;;;17.00;1.00;;;;;;5126200;27;20043;-72
2023/09/20 02:53:03;;;;;;;0.00;0.00;;;17.00;1.00;;;;;;5126156;27;20043;-72
2023/09/20 02:55:31;;;;;;;0.90;0.52;;;17.10;1.00;;;;;;5128632;27;20039;-72
2023/09/20 02:57:56;;;;;;;0.03;0.03;;;17.10;1.00;;;;;;5126701;27;20121;-71
2023/09/20 03:00:33;;;;;;;0.10;0.10;;;17.00;1.00;;;;;;5124941;27;20036;-72
2023/09/20 03:03:08;;;;;;;0.22;0.22;;;16.90;1.00;;;;;;5124056;27;20035;-72
2023/09/20 03:05:35;;;;;;;0.90;0.60;;;16.80;83.60;;;;;;5128408;27;20054;-72
2023/09/20 03:08:01;;;;;;;0.10;0.10;;;16.90;99.90;;;;;;5127109;27;20292;-72
2023/09/20 03:10:28;;;;;;;1.00;0.82;;;16.80;99.90;;;;;;5127420;27;20444;-72
2023/09/20 03:12:55;;;;;;;0.47;0.43;;;16.80;99.90;;;;;;5120452;27;20054;-72
2023/09/20 03:15:25;;;;;;;0.40;0.17;;;16.80;99.90;;;;;;5127725;27;20051;-72
2023/09/20 03:17:50;;;;;;;1.15;0.30;;;17.00;1.00;;;;;;5128245;27;20032;-72
2023/09/20 03:20:22;;;;;;;0.85;0.20;;;17.00;1.00;;;;;;5126531;27;20046;-72
2023/09/20 03:22:58;;;;;;;0.00;0.00;;;17.00;1.00;;;;;;5123997;27;20043;-72
2023/09/20 03:25:36;;;;;;;0.35;0.35;;;17.00;97.80;;;;;;5126039;27;20043;-73
2023/09/20 03:28:10;;;;;;;0.52;0.22;;;17.00;99.90;;;;;;5127986;27;20043;-72
2023/09/20 03:30:39;;;;;;;0.25;0.20;;;16.90;81.30;;;;;;5124378;27;20035;-72
2023/09/20 03:33:11;;;;;;;0.28;0.28;;;16.90;55.50;;;;;;5124523;27;20066;-72
2023/09/20 03:35:37;;;;;;;0.03;0.03;;;17.00;1.00;;;;;;5122035;27;20309;-73
2023/09/20 03:38:03;;;;;;;1.77;1.23;;;16.90;1.00;;;;;;5124582;27;20073;-72
2023/09/20 03:40:29;;;;;;;0.00;0.00;;;16.90;23.70;;;;;;5123884;27;20509;-72
2023/09/20 03:42:54;;;;;;;1.85;0.93;;;17.10;4.60;;;;;;5127355;27;20035;-72
2023/09/20 03:45:20;;;;;;;1.58;0.63;;;17.00;99.90;;;;;;5127348;27;20122;-73
2023/09/20 03:47:53;;;;;;;1.05;0.95;;;17.00;99.90;;;;;;5117285;27;20478;-72
2023/09/20 03:50:19;;;;;;;0.57;0.30;;;17.00;99.90;;;;;;5129065;27;20043;-72
2023/09/20 03:52:48;;;;;;;0.28;0.28;;;17.10;99.90;;;;;;5123871;27;20134;-72
2023/09/20 03:55:14;;;;;;;1.20;0.55;;;17.10;99.90;;;;;;5124154;27;20043;-72
2023/09/20 03:57:40;;;;;;;0.05;0.05;;;17.00;99.90;;;;;;5128022;27;20050;-73
2023/09/20 04:00:11;;;;;;;0.55;0.52;;;17.00;99.90;;;;;;5125819;27;20035;-73
2023/09/20 04:02:40;;;;;;;0.03;0.03;;;17.00;99.90;;;;;;5126133;27;20066;-73
2023/09/20 04:05:14;;;;;;;1.13;0.70;;;16.90;1.00;;;;;;5124885;27;20091;-72
2023/09/20 04:07:40;;;;;;;0.05;0.05;;;16.90;99.90;;;;;;5114913;27;20382;-73
2023/09/20 04:10:07;;;;;;;4.18;2.25;;;16.90;99.90;;;;;;5123319;27;20042;-72
2023/09/20 04:12:34;;;;;;;0.32;0.30;;;16.90;99.90;;;;;;5126894;27;20027;-73
2023/09/20 04:15:00;;;;;;;0.30;0.30;;;16.90;99.90;;;;;;5126733;27;20426;-73
2023/09/20 04:17:28;;;;;;;0.00;0.00;;;16.90;99.90;;;;;;5121217;27;20031;-72
2023/09/20 04:19:54;;;;;;;0.45;0.43;;;16.90;99.90;;;;;;5117074;27;20396;-72
2023/09/20 04:22:19;;;;;;;0.88;0.38;;;16.90;99.90;;;;;;5125127;27;20039;-72
2023/09/20 04:24:45;;;;;;;0.95;0.88;;;16.90;99.90;;;;;;5128082;27;20118;-73
2023/09/20 04:27:10;;;;;;;2.35;1.33;;;16.80;99.90;;;;;;5119627;27;20465;-73
2023/09/20 04:29:36;;;;;;;1.13;1.00;;;16.60;99.90;;;;;;5125711;27;20043;-72
2023/09/20 04:32:02;;;;;;;0.70;0.40;;;16.40;1.00;;;;;;5126660;27;20392;-72
2023/09/20 04:34:28;;;;;;;4.22;0.43;;;16.30;1.00;;;;;;5125522;27;20039;-72
2023/09/20 04:36:54;;;;;;;0.77;0.52;;;16.20;70.80;;;;;;5122467;27;20031;-73
2023/09/20 04:39:20;;;;;;;0.00;0.00;;;16.10;99.90;;;;;;5110402;27;20371;-72
2023/09/20 04:41:46;;;;;;;0.10;0.10;;;16.00;99.90;;;;;;5113836;27;20076;-72
2023/09/20 04:44:13;;;;;;;3.30;0.65;;;16.00;99.90;;;;;;5120501;27;20048;-73
2023/09/20 04:46:39;;;;;;;0.25;0.22;;;15.90;99.90;;;;;;5124120;27;20499;-72
2023/09/20 04:49:06;;;;;;;3.08;1.55;;;15.90;99.90;;;;;;5126570;27;20110;-73
2023/09/20 04:51:32;;;;;;;2.10;0.93;;;16.00;99.90;;;;;;5122816;27;20516;-72
2023/09/20 04:53:58;;;;;;;0.25;0.25;;;15.90;99.90;;;;;;5125654;27;20056;-73
2023/09/20 04:56:27;;;;;;;0.70;0.68;;;15.80;99.90;;;;;;5120314;27;20048;-73
2023/09/20 04:58:52;;;;;;;0.43;0.30;;;15.80;99.90;;;;;;5121681;27;20083;-73
2023/09/20 05:01:18;;;;;;;0.20;0.20;;;15.70;1.00;;;;;;5126240;27;20448;-72
2023/09/20 05:03:44;;;;;;;1.40;1.00;;;15.60;1.00;;;;;;5126196;27;20043;-72
2023/09/20 05:06:09;;;;;;;0.00;0.00;;;15.50;1.00;;;;;;5117566;27;20035;-73
2023/09/20 05:08:36;;;;;;;0.15;0.15;;;15.50;6.10;;;;;;5116123;27;20551;-72
2023/09/20 05:11:03;;;;;;;0.80;0.45;;;15.60;1.00;;;;;;5125275;27;20047;-73
2023/09/20 05:13:28;;;;;;;0.43;0.32;;;15.60;2.50;;;;;;5122592;27;20550;-72
2023/09/20 05:15:54;;;;;;;0.25;0.25;;;15.60;1.00;;;;;;5121393;27;20051;-72
2023/09/20 05:18:20;;;;;;;0.13;0.13;;;15.70;1.00;;;;;;5126179;27;20043;-72
2023/09/20 05:20:45;;;;;;;0.43;0.30;;;15.70;1.00;;;;;;5123010;27;20093;-72
2023/09/20 05:23:14;;;;;;;0.20;0.10;;;15.70;1.00;;;;;;5123226;27;20378;-72
2023/09/20 05:25:39;;;;;;;0.05;0.05;;;15.60;24.60;;;;;;5125849;27;20031;-72
2023/09/20 05:28:05;;;;;;;2.67;0.77;;;15.50;68.10;;;;;;5119523;28;20039;-72
2023/09/20 05:30:32;;;;;;;9.32;0.47;;;15.60;82.20;;;;;;5123717;28;20038;-73
2023/09/20 05:32:58;;;;;;;0.00;0.00;;;15.70;1.00;;;;;;5122645;28;20039;-72
2023/09/20 05:35:27;;;;;;;0.30;0.30;;;15.80;1.00;;;;;;5121449;28;20047;-72
2023/09/20 05:37:53;;;;;;;1.02;0.95;;;15.90;99.90;;;;;;5124628;28;20038;-72
2023/09/20 05:40:18;;;;;;;0.73;0.55;;;16.00;99.90;;;;;;5125018;28;20085;-72
2023/09/20 05:42:44;;;;;;;0.65;0.43;;;16.00;99.90;;;;;;5122338;27;20051;-72
2023/09/20 05:45:10;;;;;;;0.45;0.45;;;16.10;99.90;;;;;;5120992;28;20036;-73
2023/09/20 05:47:36;;;;;;;0.30;0.30;;;16.20;99.90;;;;;;5118756;28;20145;-72
2023/09/20 05:50:02;;;;;;;2.90;1.45;;;16.30;99.90;;;;;;5121954;27;20047;-72
2023/09/20 05:52:28;;;;;;;0.47;0.47;;;16.30;99.90;;;;;;5121242;28;20051;-72
2023/09/20 05:54:55;;;;;;;0.15;0.15;;;16.40;97.50;;;;;;5127178;28;20047;-73
2023/09/20 05:57:22;;;;;;;0.15;0.13;;;16.50;1.00;;;;;;5111088;27;20114;-72
2023/09/20 05:59:48;;;;;;;0.20;0.10;;;16.40;1.00;;;;;;5113578;27;20040;-72
2023/09/20 06:02:14;;;;;;;0.25;0.17;;;16.40;12.80;;;;;;5116996;27;20041;-72
2023/09/20 06:04:39;;;;;;;0.10;0.10;;;16.30;99.90;;;;;;5128157;27;20047;-72
2023/09/20 06:07:05;;;;;;;0.63;0.20;;;16.30;43.80;;;;;;5126682;27;20381;-72
2023/09/20 06:09:31;;;;;;;0.52;0.30;;;16.30;1.00;;;;;;5124208;27;20035;-72
2023/09/20 06:11:57;;;;;;;0.00;0.00;;;16.30;29.20;;;;;;5125368;27;20035;-72
2023/09/20 06:14:22;;;;;;;3.53;0.20;;;16.30;1.00;;;;;;5128028;27;20499;-72
2023/09/20 06:16:48;;;;;;;0.20;0.17;;;16.30;33.80;;;;;;5121387;27;20031;-73
2023/09/20 06:19:16;;;;;;;2.13;0.60;;;16.30;48.70;;;;;;5126930;27;20039;-72
2023/09/20 06:21:43;;;;;;;0.30;0.10;;;16.40;1.00;;;;;;5125236;27;20047;-73
2023/09/20 06:24:11;;;;;;;0.52;0.43;;;16.40;1.00;;;;;;5124419;27;20531;-73
2023/09/20 06:26:40;;;;;;;0.43;0.25;;;16.30;5.90;;;;;;5114428;27;20036;-72
2023/09/20 06:29:06;;;;;;;0.00;0.00;;;16.30;11.30;;;;;;5114478;27;20054;-72
2023/09/20 06:31:32;;;;;;;0.20;0.20;;;16.30;1.00;;;;;;5114215;27;20416;-72
2023/09/20 06:33:58;;;;;;;0.75;0.70;;;16.20;99.90;;;;;;5121117;27;20054;-72
2023/09/20 06:36:23;;;;;;;1.77;1.10;;;16.20;98.90;;;;;;5122096;27;20556;-72
2023/09/20 06:38:52;;;;;;;0.17;0.17;;;16.20;99.90;;;;;;5124885;27;20099;-72
2023/09/20 06:41:20;;;;;;;0.00;0.00;;;16.20;85.00;;;;;;5124842;27;20039;-72
2023/09/20 06:43:46;;;;;;;0.25;0.20;;;16.30;34.10;;;;;;5121454;27;20054;-72
2023/09/20 06:46:11;;;;;;;0.15;0.15;;;16.30;41.10;;;;;;5121451;27;20035;-73
2023/09/20 06:48:37;;;;;;;1.58;0.57;;;16.30;65.10;;;;;;5120362;27;20040;-73
2023/09/20 06:51:03;;;;;;;2.35;0.65;;;16.40;1.00;;;;;;5124664;27;20397;-72
2023/09/20 06:53:30;;;;;;;1.00;0.90;;;16.70;1.00;;;;;;5124356;27;20106;-72
2023/09/20 06:55:59;;;;;;;0.95;0.50;;;16.60;1.00;;;;;;5128714;27;20510;-73
2023/09/20 06:58:25;;;;;;;0.52;0.40;;;16.70;99.90;;;;;;5121433;27;20441;-72
2023/09/20 07:00:52;;;;;;;0.38;0.30;;;16.70;99.90;;;;;;5122174;27;20092;-72
2023/09/20 07:03:18;;;;;;;0.43;0.32;;;16.70;99.90;;;;;;5124427;27;20058;-73
2023/09/20 07:05:44;;;;;;;0.15;0.10;;;16.90;99.90;;;;;;5125373;27;20035;-72
2023/09/20 07:08:10;;;;;;;0.00;0.00;;;16.80;99.90;;;;;;5121423;27;20039;-72
2023/09/20 07:10:41;;;;;;;1.05;0.22;;;17.00;17.60;;;;;;5119729;27;20054;-72
2023/09/20 07:13:09;;;;;;;0.15;0.13;;;16.90;18.80;;;;;;5121863;27;20043;-72
2023/09/20 07:15:35;;;;;;;1.20;0.65;;;16.90;99.90;;;;;;5124009;27;20462;-72
2023/09/20 07:18:12;;;;;;;0.93;0.57;;;17.00;1.00;;;;;;5112648;27;20126;-72
2023/09/20 07:20:39;;;;;;;1.90;0.35;;;17.00;20.40;;;;;;5101956;27;20043;-72
2023/09/20 07:23:08;;;;;;;0.43;0.43;;;16.90;99.90;;;;;;5123194;27;20055;-72
2023/09/20 07:25:36;;;;;;;0.43;0.20;;;17.00;1.00;;;;;;5112390;27;20086;-72
2023/09/20 07:28:04;;;;;;;0.17;0.17;;;16.80;99.90;;;;;;5120478;27;20044;-72
2023/09/20 07:30:34;;;;;;;3.40;0.95;;;16.80;99.90;;;;;;5122576;27;20043;-72
2023/09/20 07:33:03;;;;;;;1.20;0.88;;;16.80;99.90;;;;;;5123685;27;20058;-72
2023/09/20 07:35:37;;;;;;;0.77;0.77;;;16.90;99.90;;;;;;5122522;27;20047;-72
2023/09/20 07:38:04;;;;;;;0.05;0.03;;;16.90;99.90;;;;;;5117204;27;20054;-72
2023/09/20 07:40:33;;;;;;;1.38;0.75;;;17.10;99.90;;;;;;5123169;27;20152;-72
2023/09/20 07:43:07;;;;;;;0.75;0.75;;;17.30;99.90;;;;;;5120287;27;20043;-72
2023/09/20 07:45:37;;;;;;;0.30;0.30;;;17.40;99.90;;;;;;5120369;27;20100;-72
2023/09/20 07:48:16;;;;;;;0.00;0.00;;;17.60;99.90;;;;;;5123964;27;20054;-72
2023/09/20 07:50:50;;;;;;;1.77;0.30;;;17.70;99.90;;;;;;5122449;27;20042;-73
2023/09/20 07:53:18;;;;;;;0.40;0.40;;;17.90;19.10;;;;;;5120290;27;20392;-72
2023/09/20 07:55:55;;;;;;;0.25;0.25;;;18.00;1.00;;;;;;5120640;27;20411;-73
2023/09/20 07:58:21;;;;;;;0.00;0.00;;;18.10;99.90;;;;;;5122282;27;20039;-72
2023/09/20 08:00:48;;;;;;;0.00;0.00;;;18.00;99.90;;;;;;5120471;27;20043;-72
2023/09/20 08:03:14;;;;;;;1.52;0.85;;;17.90;99.90;;;;;;5123570;27;20138;-72
2023/09/20 08:05:41;;;;;;;0.00;0.00;;;17.80;99.90;;;;;;5122573;27;20046;-73
2023/09/20 08:08:10;;;;;;;0.22;0.22;;;17.70;1.00;;;;;;5121014;27;20051;-72
2023/09/20 08:10:38;;;;;;;0.20;0.13;;;17.70;17.60;;;;;;5119633;27;20040;-72
2023/09/20 08:13:05;;;;;;;0.20;0.20;;;17.80;3.80;;;;;;5120698;27;20515;-72
2023/09/20 08:15:43;;;;;;;0.20;0.15;;;17.60;99.90;;;;;;5122285;27;20330;-72
2023/09/20 08:20:57;;;;;;;0.63;0.47;;;17.80;99.90;;;;;;5119033;27;20058;-72
2023/09/20 09:02:05;;;;;;;1.55;1.08;;;19.00;1.00;;;;;;5120748;27;20055;-73
2023/09/20 09:04:31;;;;;;;0.88;0.65;;;19.10;1.00;;;;;;5121527;27;20074;-73
2023/09/20 09:06:57;;;;;;;0.60;0.60;;;19.20;99.90;;;;;;5119805;27;20117;-73
2023/09/20 09:09:23;;;;;;;1.85;1.02;;;19.20;99.90;;;;;;5118669;27;20149;-73
2023/09/20 09:11:48;;;;;;;0.70;0.57;;;19.30;99.90;;;;;;5118721;27;20122;-72
2023/09/20 09:14:14;;;;;;;2.15;1.55;;;19.10;99.90;;;;;;5120237;27;20039;-73
2023/09/20 09:16:40;;;;;;;1.27;0.57;;;19.10;99.90;;;;;;5121686;27;20532;-72
2023/09/20 09:19:07;;;;;;;0.00;0.00;;;19.10;99.90;;;;;;5121191;27;20589;-72
2023/09/20 09:21:34;;;;;;;0.75;0.75;;;19.10;99.90;;;;;;5118320;27;20047;-73
2023/09/20 09:24:00;;;;;;;0.32;0.30;;;19.20;99.90;;;;;;5118478;27;20054;-73
2023/09/20 09:26:26;;;;;;;0.17;0.03;;;19.20;99.90;;;;;;5121000;27;20039;-72
2023/09/20 09:28:52;;;;;;;0.17;0.17;;;19.30;99.90;;;;;;5115525;27;20496;-72
2023/09/20 09:31:18;;;;;;;7.43;0.20;;;19.30;99.90;;;;;;5119033;28;20035;-73
2023/09/20 09:33:44;;;;;;;0.43;0.40;;;19.30;99.90;;;;;;5121005;27;20043;-72
2023/09/20 09:36:10;;;;;;;0.63;0.63;;;19.30;99.90;;;;;;5121729;27;20457;-72
2023/09/20 09:38:38;;;;;;;0.00;0.00;;;19.40;99.90;;;;;;5118750;27;20046;-72
2023/09/20 09:41:03;;;;;;;0.10;0.10;;;19.50;99.90;;;;;;5101828;28;20453;-73
2023/09/20 09:43:30;;;;;;;0.93;0.43;;;19.60;99.90;;;;;;5117377;28;20044;-73
2023/09/20 09:46:07;;;;;;;0.32;0.15;;;19.60;99.90;;;;;;5114313;27;20054;-73
2023/09/20 09:48:33;;;;;;;0.93;0.82;;;19.80;94.10;;;;;;5118499;28;20050;-72
2023/09/20 09:50:59;;;;;;;0.30;0.30;;;19.80;72.40;;;;;;5121460;27;20034;-73
2023/09/20 09:53:26;;;;;;;0.15;0.10;;;19.80;64.20;;;;;;5116962;28;20053;-73
2023/09/20 09:55:52;;;;;;;1.38;0.98;;;19.80;94.10;;;;;;5120387;28;20042;-73
2023/09/20 09:58:18;;;;;;;9.15;1.52;;;20.00;77.10;;;;;;5121299;27;20072;-72
2023/09/20 10:00:48;;;;;;;0.00;0.00;;;20.20;86.60;;;;;;5121393;27;20031;-72
2023/09/20 10:03:32;;;;;;;0.20;0.17;;;20.40;93.80;;;;;;5117519;28;20126;-73
2023/09/20 10:06:15;;;;;;;0.00;0.00;;;20.70;12.40;;;;;;5105778;28;20051;-72
2023/09/20 10:08:42;;;;;;;0.00;0.00;;;20.80;2.80;;;;;;5110841;27;20115;-73
2023/09/20 10:11:09;;;;;;;0.22;0.20;;;20.90;1.00;;;;;;5118854;27;20070;-73
2023/09/20 10:13:37;;;;;;;0.80;0.80;;;20.90;1.00;;;;;;5113971;27;20413;-73
2023/09/20 10:16:05;;;;;;;0.47;0.32;;;20.70;1.00;;;;;;5116021;28;20083;-73
2023/09/20 10:18:51;;;;;;;0.15;0.10;;;20.80;1.00;;;;;;5121574;27;20046;-72
2023/09/20 10:21:20;;;;;;;0.00;0.00;;;20.80;1.00;;;;;;5119304;27;20532;-72
2023/09/20 10:24:02;;;;;;;1.00;0.25;;;20.70;1.00;;;;;;5114726;28;20051;-72
2023/09/20 10:26:33;;;;;;;0.17;0.15;;;20.70;1.00;;;;;;5120503;28;20454;-72
2023/09/20 10:29:28;;;;;;;0.30;0.20;;;20.60;1.00;;;;;;5121311;27;20039;-72
2023/09/20 10:32:13;;;;;;;0.10;0.10;;;20.40;1.00;;;;;;5110693;28;20047;-72
2023/09/20 10:34:39;;;;;;;0.32;0.32;;;20.40;1.00;;;;;;5118880;28;20047;-72
2023/09/20 10:37:08;;;;;;;0.05;0.05;;;20.50;1.00;;;;;;5121311;27;20043;-72
2023/09/20 10:39:34;;;;;;;0.00;0.00;;;20.50;1.00;;;;;;5119154;27;20039;-72
2023/09/20 10:42:12;;;;;;;0.13;0.10;;;20.40;1.00;;;;;;5117686;28;20036;-72
2023/09/20 10:44:41;;;;;;;0.05;0.05;;;20.50;1.00;;;;;;5121051;27;20047;-72
2023/09/20 10:47:16;;;;;;;0.20;0.20;;;20.50;1.00;;;;;;5125158;27;20039;-72
2023/09/20 10:49:47;;;;;;;0.40;0.30;;;20.60;1.00;;;;;;5122960;27;20045;-71
2023/09/20 10:52:33;;;;;;;0.10;0.10;;;20.50;1.00;;;;;;5118854;27;20062;-72
2023/09/20 10:55:22;;;;;;;0.00;0.00;;;20.40;1.00;;;;;;5127978;27;20047;-72
2023/09/20 10:57:50;;;;;;;0.00;0.00;;;20.20;1.00;;;;;;5127150;27;20047;-72
2023/09/20 11:00:30;;;;;;;0.03;0.03;;;20.20;1.00;;;;;;5121365;27;20054;-72
2023/09/20 11:02:56;;;;;;;0.32;0.15;;;20.20;1.00;;;;;;5122289;27;20502;-72
2023/09/20 11:05:23;;;;;;;0.80;0.47;;;20.20;1.00;;;;;;5122951;27;20031;-72
2023/09/20 11:07:50;;;;;;;0.00;0.00;;;20.20;1.00;;;;;;5119162;27;20040;-71
2023/09/20 11:10:19;;;;;;;0.47;0.28;;;20.10;1.00;;;;;;5111400;27;20035;-72
2023/09/20 11:12:45;;;;;;;0.00;0.00;;;20.10;1.00;;;;;;5110165;27;20047;-72
2023/09/20 11:15:13;;;;;;;2.25;0.95;;;19.90;1.00;;;;;;5121763;27;20527;-74
2023/09/20 11:17:39;;;;;;;1.02;0.73;;;19.90;1.00;;;;;;5122771;27;20492;-75
2023/09/20 11:20:07;;;;;;;1.77;0.80;;;19.80;1.00;;;;;;5123646;27;20035;-74
2023/09/20 11:22:33;;;;;;;0.00;0.00;;;19.70;1.00;;;;;;5121290;27;20127;-74
2023/09/20 11:25:00;;;;;;;3.40;0.50;;;19.70;1.00;;;;;;5124413;27;20100;-72
2023/09/20 11:27:27;;;;;;;1.58;0.68;;;19.80;1.00;;;;;;5121293;27;20496;-73
2023/09/20 11:29:53;;;;;;;0.55;0.55;;;19.80;1.00;;;;;;5120887;27;20053;-72
2023/09/20 11:32:22;;;;;;;0.75;0.47;;;19.90;1.00;;;;;;5118472;27;20478;-72
2023/09/20 11:34:51;;;;;;;1.10;0.75;;;20.00;1.00;;;;;;5117563;27;20055;-72
2023/09/20 11:37:19;;;;;;;0.03;0.03;;;20.00;1.00;;;;;;5118782;27;20035;-72
2023/09/20 11:39:48;;;;;;;0.20;0.13;;;20.20;1.00;;;;;;5110179;27;20119;-72
2023/09/20 11:42:26;;;;;;;0.25;0.10;;;20.20;1.00;;;;;;5117886;27;20075;-72
2023/09/20 11:44:59;;;;;;;0.05;0.03;;;20.40;1.00;;;;;;5111253;27;20105;-72
2023/09/20 11:47:28;;;;;;;0.00;0.00;;;20.60;1.00;;;;;;5102257;27;20043;-73
2023/09/20 11:49:57;;;;;;;0.35;0.35;;;20.80;1.00;;;;;;5099007;27;20050;-72
2023/09/20 11:52:23;;;;;;;0.15;0.15;;;21.00;1.00;;;;;;5118283;27;20130;-73
2023/09/20 11:54:48;;;;;;;0.03;0.03;;;20.90;1.00;;;;;;5123157;27;20042;-73
2023/09/20 11:57:17;;;;;;;0.10;0.10;;;20.90;1.00;;;;;;5123451;27;20043;-72
2023/09/20 11:59:44;;;;;;;0.28;0.10;;;21.10;1.00;;;;;;5121950;27;20047;-72
2023/09/20 12:02:12;;;;;;;0.25;0.25;;;21.30;1.00;;;;;;5120117;27;20058;-72
2023/09/20 12:04:40;;;;;;;0.00;0.00;;;21.40;1.00;;;;;;5121091;27;20092;-71
2023/09/20 12:07:09;;;;;;;1.23;0.75;;;21.40;1.00;;;;;;5123359;27;20069;-72
2023/09/20 12:09:36;;;;;;;0.28;0.20;;;21.70;1.00;;;;;;5124070;27;20034;-72
2023/09/20 12:12:05;;;;;;;0.45;0.20;;;21.80;99.90;;;;;;5122344;27;20035;-73
2023/09/20 12:14:33;;;;;;;1.60;0.77;;;22.30;1.00;;;;;;5127392;27;20078;-74
2023/09/20 12:16:59;;;;;;;0.85;0.38;;;22.60;1.00;;;;;;5120954;27;20130;-72
2023/09/20 12:19:25;;;;;;;0.10;0.10;;;23.00;99.90;;;;;;5123714;27;20114;-72
2023/09/20 12:21:51;;;;;;;0.17;0.17;;;23.20;99.90;;;;;;5121393;27;20389;-73
2023/09/20 12:24:17;;;;;;;0.60;0.35;;;23.30;99.90;;;;;;5121729;27;20049;-73
2023/09/20 12:26:42;;;;;;;2.65;0.77;;;23.20;99.90;;;;;;5117885;27;20031;-73
2023/09/20 12:29:08;;;;;;;0.52;0.45;;;23.00;99.90;;;;;;5123818;27;20031;-74
2023/09/20 12:31:34;;;;;;;0.63;0.38;;;22.70;99.90;;;;;;5122468;27;20565;-74
2023/09/20 12:34:00;;;;;;;0.00;0.00;;;22.90;99.90;;;;;;5123677;27;20485;-74
2023/09/20 12:36:29;;;;;;;1.55;0.88;;;23.30;99.90;;;;;;5121859;27;20080;-74
2023/09/20 12:38:56;;;;;;;0.90;0.70;;;23.30;99.90;;;;;;5120046;27;20035;-74
2023/09/20 12:41:25;;;;;;;0.15;0.15;;;23.30;99.90;;;;;;5125057;27;20063;-74
2023/09/20 12:43:51;;;;;;;0.17;0.10;;;23.40;99.90;;;;;;5111938;27;20048;-74
2023/09/20 12:46:17;;;;;;;0.15;0.15;;;23.70;99.90;;;;;;5119769;27;20038;-78
2023/09/20 12:48:44;;;;;;;0.60;0.60;;;23.90;99.90;;;;;;5121095;27;20046;-74
2023/09/20 12:51:12;;;;;;;0.98;0.52;;;24.20;99.90;;;;;;5113726;27;20062;-73
2023/09/20 12:53:38;;;;;;;0.20;0.15;;;24.20;99.90;;;;;;5126602;27;20508;-73
2023/09/20 12:56:05;;;;;;;0.15;0.15;;;23.90;99.90;;;;;;5118338;27;20118;-74
2023/09/20 12:58:31;;;;;;;0.20;0.20;;;23.60;99.90;;;;;;5120817;27;20047;-73
2023/09/20 13:00:58;;;;;;;0.00;0.00;;;23.40;99.90;;;;;;5120510;27;20043;-73
2023/09/20 13:03:24;;;;;;;0.35;0.30;;;23.60;99.90;;;;;;5123163;27;20521;-74
2023/09/20 13:05:49;;;;;;;0.20;0.20;;;23.90;99.90;;;;;;5120960;27;20083;-73
2023/09/20 13:08:16;;;;;;;0.85;0.30;;;24.00;99.90;;;;;;5119190;27;20081;-72
2023/09/20 13:10:43;;;;;;;0.55;0.32;;;23.80;99.90;;;;;;5119495;27;20063;-74
2023/09/20 13:13:10;;;;;;;0.17;0.13;;;23.50;99.90;;;;;;5120516;27;20253;-73
2023/09/20 13:15:41;;;;;;;0.10;0.10;;;23.20;99.90;;;;;;5119796;27;20474;-73
2023/09/20 13:18:09;;;;;;;5.38;0.95;;;23.00;99.90;;;;;;5119427;27;20139;-73
2023/09/20 13:20:41;;;;;;;0.00;0.00;;;22.90;99.90;;;;;;5113512;27;20055;-73
2023/09/20 13:23:07;;;;;;;1.20;0.57;;;22.70;99.90;;;;;;5101089;28;20481;-73
2023/09/20 13:25:33;;;;;;;0.10;0.10;;;22.60;99.90;;;;;;5117404;27;20049;-73
2023/09/20 13:27:59;;;;;;;0.20;0.20;;;22.70;99.90;;;;;;5119276;27;20062;-73
2023/09/20 13:30:26;;;;;;;0.15;0.15;;;22.80;99.90;;;;;;5120192;27;20392;-73
2023/09/20 13:32:52;;;;;;;1.63;0.30;;;23.10;99.90;;;;;;5122500;27;20125;-73
2023/09/20 13:35:18;;;;;;;0.65;0.40;;;23.30;99.90;;;;;;5121265;27;20051;-73